sensor_id;sensor_type;location;lat;lon;timestamp;pressure;altitude;pressure_sealevel;temperature;humidity
66543;BME280;53395;37.360;-122.046;2022-09-09T00:01:51;99893.53;;;37.19;22.64
66543;BME280;53395;37.360;-122.046;2022-09-09T00:04:29;99883.50;;;37.38;22.85
66543;BME280;53395;37.360;-122.046;2022-09-09T00:15:21;99875.16;;;36.51;22.37
66543;BME280;53395;37.360;-122.046;2022-09-09T00:18:05;99879.88;;;36.31;23.28
66543;BME280;53395;37.360;-122.046;2022-09-09T00:23:30;99877.59;;;36.28;24.09
66543;BME280;53395;37.360;-122.046;2022-09-09T00:28:30;99876.63;;;35.24;26.47
66543;BME280;53395;37.360;-122.046;2022-09-09T00:31:11;99865.53;;;34.99;27.30
66543;BME280;53395;37.360;-122.046;2022-09-09T00:33:38;99872.22;;;34.63;28.02
66543;BME280;53395;37.360;-122.046;2022-09-09T00:36:13;99870.34;;;34.70;28.18
66543;BME280;53395;37.360;-122.046;2022-09-09T00:38:58;99874.81;;;34.23;27.63
66543;BME280;53395;37.360;-122.046;2022-09-09T00:46:48;99868.66;;;34.07;25.94
66543;BME280;53395;37.360;-122.046;2022-09-09T00:57:26;99869.56;;;34.15;26.50
66543;BME280;53395;37.360;-122.046;2022-09-09T01:07:54;99861.81;;;33.35;28.55
66543;BME280;53395;37.360;-122.046;2022-09-09T01:10:50;99853.88;;;33.34;28.69
66543;BME280;53395;37.360;-122.046;2022-09-09T01:13:30;99865.09;;;33.02;29.22
66543;BME280;53395;37.360;-122.046;2022-09-09T01:15:59;99856.72;;;33.19;29.51
66543;BME280;53395;37.360;-122.046;2022-09-09T01:18:39;99860.31;;;33.26;30.44
66543;BME280;53395;37.360;-122.046;2022-09-09T01:23:43;99856.03;;;32.89;30.65
66543;BME280;53395;37.360;-122.046;2022-09-09T01:26:15;99848.63;;;32.97;30.91
66543;BME280;53395;37.360;-122.046;2022-09-09T01:28:49;99851.38;;;32.82;31.42
66543;BME280;53395;37.360;-122.046;2022-09-09T01:34:20;99851.41;;;32.61;31.82
66543;BME280;53395;37.360;-122.046;2022-09-09T01:36:52;99843.88;;;32.56;32.26
66543;BME280;53395;37.360;-122.046;2022-09-09T01:39:20;99844.91;;;32.55;32.22
66543;BME280;53395;37.360;-122.046;2022-09-09T01:41:47;99842.22;;;32.40;32.63
66543;BME280;53395;37.360;-122.046;2022-09-09T01:44:14;99841.53;;;32.32;33.68
66543;BME280;53395;37.360;-122.046;2022-09-09T01:46:40;99840.47;;;32.33;33.00
66543;BME280;53395;37.360;-122.046;2022-09-09T01:49:08;99839.00;;;32.30;34.41
66543;BME280;53395;37.360;-122.046;2022-09-09T01:51:36;99840.97;;;32.21;33.13
66543;BME280;53395;37.360;-122.046;2022-09-09T01:54:04;99839.16;;;32.07;33.56
66543;BME280;53395;37.360;-122.046;2022-09-09T02:04:41;99843.81;;;31.39;37.25
66543;BME280;53395;37.360;-122.046;2022-09-09T02:09:44;99836.63;;;30.79;38.32
66543;BME280;53395;37.360;-122.046;2022-09-09T02:12:14;99846.09;;;30.74;38.54
66543;BME280;53395;37.360;-122.046;2022-09-09T02:14:49;99838.84;;;30.75;40.82
66543;BME280;53395;37.360;-122.046;2022-09-09T02:17:21;99836.00;;;30.53;40.11
66543;BME280;53395;37.360;-122.046;2022-09-09T02:19:55;99838.31;;;30.33;40.66
66543;BME280;53395;37.360;-122.046;2022-09-09T02:22:24;99835.44;;;30.58;41.78
66543;BME280;53395;37.360;-122.046;2022-09-09T02:24:56;99843.44;;;30.20;40.83
66543;BME280;53395;37.360;-122.046;2022-09-09T02:27:24;99837.91;;;30.13;42.45
66543;BME280;53395;37.360;-122.046;2022-09-09T02:29:52;99838.22;;;29.79;41.50
66543;BME280;53395;37.360;-122.046;2022-09-09T02:32:22;99835.66;;;29.94;41.66
66543;BME280;53395;37.360;-122.046;2022-09-09T02:34:56;99842.09;;;29.85;41.12
66543;BME280;53395;37.360;-122.046;2022-09-09T02:37:27;99833.28;;;29.99;42.99
66543;BME280;53395;37.360;-122.046;2022-09-09T02:39:58;99832.69;;;29.73;42.58
66543;BME280;53395;37.360;-122.046;2022-09-09T02:42:27;99841.75;;;29.88;44.72
66543;BME280;53395;37.360;-122.046;2022-09-09T02:44:58;99832.88;;;29.63;46.03
66543;BME280;53395;37.360;-122.046;2022-09-09T02:47:41;99845.88;;;29.59;47.17
66543;BME280;53395;37.360;-122.046;2022-09-09T02:51:18;99842.19;;;29.44;47.98
66543;BME280;53395;37.360;-122.046;2022-09-09T02:53:18;99849.56;;;29.58;46.74
66543;BME280;53395;37.360;-122.046;2022-09-09T02:55:48;99864.66;;;29.12;48.88
66543;BME280;53395;37.360;-122.046;2022-09-09T02:58:17;99868.47;;;28.93;49.11
66543;BME280;53395;37.360;-122.046;2022-09-09T03:00:47;99876.03;;;28.97;47.79
66543;BME280;53395;37.360;-122.046;2022-09-09T03:03:14;99876.38;;;28.70;50.07
66543;BME280;53395;37.360;-122.046;2022-09-09T03:05:42;99876.69;;;28.50;48.13
66543;BME280;53395;37.360;-122.046;2022-09-09T03:08:09;99879.22;;;28.68;48.84
66543;BME280;53395;37.360;-122.046;2022-09-09T03:10:35;99884.09;;;28.48;49.46
66543;BME280;53395;37.360;-122.046;2022-09-09T03:13:03;99882.66;;;28.36;48.42
66543;BME280;53395;37.360;-122.046;2022-09-09T03:15:32;99879.78;;;28.13;49.83
66543;BME280;53395;37.360;-122.046;2022-09-09T03:17:58;99884.63;;;28.09;48.05
66543;BME280;53395;37.360;-122.046;2022-09-09T03:20:26;99875.88;;;28.07;49.74
66543;BME280;53395;37.360;-122.046;2022-09-09T03:22:53;99886.69;;;27.89;49.95
66543;BME280;53395;37.360;-122.046;2022-09-09T03:25:21;99876.63;;;27.57;50.40
66543;BME280;53395;37.360;-122.046;2022-09-09T03:27:50;99877.88;;;27.71;49.86
66543;BME280;53395;37.360;-122.046;2022-09-09T03:30:21;99880.13;;;27.49;51.41
66543;BME280;53395;37.360;-122.046;2022-09-09T03:32:47;99887.31;;;27.49;49.50
66543;BME280;53395;37.360;-122.046;2022-09-09T03:35:17;99886.53;;;27.56;46.69
66543;BME280;53395;37.360;-122.046;2022-09-09T03:37:43;99893.84;;;27.46;47.51
66543;BME280;53395;37.360;-122.046;2022-09-09T03:40:10;99899.53;;;27.43;46.67
66543;BME280;53395;37.360;-122.046;2022-09-09T03:42:37;99895.03;;;27.26;49.07
66543;BME280;53395;37.360;-122.046;2022-09-09T03:45:05;99894.56;;;27.30;49.05
66543;BME280;53395;37.360;-122.046;2022-09-09T03:47:32;99904.53;;;27.02;48.66
66543;BME280;53395;37.360;-122.046;2022-09-09T03:49:58;99908.31;;;27.09;48.42
66543;BME280;53395;37.360;-122.046;2022-09-09T03:52:25;99913.59;;;27.01;49.54
66543;BME280;53395;37.360;-122.046;2022-09-09T03:54:52;99917.03;;;27.11;50.47
66543;BME280;53395;37.360;-122.046;2022-09-09T03:57:19;99934.00;;;26.48;50.35
66543;BME280;53395;37.360;-122.046;2022-09-09T03:59:46;99932.50;;;27.17;47.25
66543;BME280;53395;37.360;-122.046;2022-09-09T04:02:12;99937.34;;;26.78;47.46
66543;BME280;53395;37.360;-122.046;2022-09-09T04:04:38;99944.00;;;26.56;48.63
66543;BME280;53395;37.360;-122.046;2022-09-09T04:07:05;99945.44;;;26.41;50.37
66543;BME280;53395;37.360;-122.046;2022-09-09T04:09:34;99933.75;;;26.14;51.49
66543;BME280;53395;37.360;-122.046;2022-09-09T04:12:00;99936.66;;;26.58;48.97
66543;BME280;53395;37.360;-122.046;2022-09-09T04:14:26;99945.75;;;26.65;48.69
66543;BME280;53395;37.360;-122.046;2022-09-09T04:16:54;99932.28;;;26.29;48.54
66543;BME280;53395;37.360;-122.046;2022-09-09T04:19:23;99940.47;;;26.28;48.82
66543;BME280;53395;37.360;-122.046;2022-09-09T04:21:49;99940.09;;;26.41;47.73
66543;BME280;53395;37.360;-122.046;2022-09-09T04:24:17;99938.97;;;26.15;49.38
66543;BME280;53395;37.360;-122.046;2022-09-09T04:26:46;99936.03;;;26.09;50.85
66543;BME280;53395;37.360;-122.046;2022-09-09T04:29:12;99935.16;;;26.18;49.40
66543;BME280;53395;37.360;-122.046;2022-09-09T04:31:39;99933.13;;;26.02;51.08
66543;BME280;53395;37.360;-122.046;2022-09-09T04:34:08;99924.06;;;26.03;49.24
66543;BME280;53395;37.360;-122.046;2022-09-09T04:36:35;99929.34;;;25.95;49.76
66543;BME280;53395;37.360;-122.046;2022-09-09T04:39:02;99927.41;;;25.87;51.29
66543;BME280;53395;37.360;-122.046;2022-09-09T04:41:28;99931.66;;;25.61;51.83
66543;BME280;53395;37.360;-122.046;2022-09-09T04:43:56;99931.84;;;25.49;52.58
66543;BME280;53395;37.360;-122.046;2022-09-09T04:46:23;99934.53;;;25.49;52.35
66543;BME280;53395;37.360;-122.046;2022-09-09T04:48:50;99935.53;;;25.29;51.78
66543;BME280;53395;37.360;-122.046;2022-09-09T04:51:18;99936.63;;;25.46;50.29
66543;BME280;53395;37.360;-122.046;2022-09-09T04:53:44;99934.13;;;25.35;51.80
66543;BME280;53395;37.360;-122.046;2022-09-09T04:56:17;99937.78;;;25.14;51.65
66543;BME280;53395;37.360;-122.046;2022-09-09T04:58:43;99941.31;;;25.24;51.95
66543;BME280;53395;37.360;-122.046;2022-09-09T05:01:15;99943.69;;;25.08;54.02
66543;BME280;53395;37.360;-122.046;2022-09-09T05:03:47;99939.19;;;24.99;52.67
66543;BME280;53395;37.360;-122.046;2022-09-09T05:06:18;99937.63;;;25.06;54.32
66543;BME280;53395;37.360;-122.046;2022-09-09T05:08:45;99943.59;;;25.19;55.43
66543;BME280;53395;37.360;-122.046;2022-09-09T05:13:42;99937.94;;;25.22;56.17
66543;BME280;53395;37.360;-122.046;2022-09-09T05:16:08;99937.09;;;25.12;56.54
66543;BME280;53395;37.360;-122.046;2022-09-09T05:18:38;99930.03;;;25.01;56.20
66543;BME280;53395;37.360;-122.046;2022-09-09T05:21:04;99928.06;;;25.03;57.98
66543;BME280;53395;37.360;-122.046;2022-09-09T05:23:32;99927.38;;;25.01;56.65
66543;BME280;53395;37.360;-122.046;2022-09-09T05:26:00;99931.31;;;24.87;57.50
66543;BME280;53395;37.360;-122.046;2022-09-09T05:28:27;99922.16;;;24.80;57.93
66543;BME280;53395;37.360;-122.046;2022-09-09T05:31:02;99931.84;;;23.81;74.62
66543;BME280;53395;37.360;-122.046;2022-09-09T05:33:35;99917.13;;;23.66;76.62
66543;BME280;53395;37.360;-122.046;2022-09-09T05:36:04;99914.25;;;23.06;87.02
66543;BME280;53395;37.360;-122.046;2022-09-09T05:38:31;99918.41;;;22.87;90.43
66543;BME280;53395;37.360;-122.046;2022-09-09T05:41:03;99916.13;;;23.36;88.08
66543;BME280;53395;37.360;-122.046;2022-09-09T05:43:29;99918.94;;;24.17;75.16
66543;BME280;53395;37.360;-122.046;2022-09-09T05:48:43;99917.28;;;24.25;69.88
66543;BME280;53395;37.360;-122.046;2022-09-09T05:51:15;99917.41;;;24.24;68.65
66543;BME280;53395;37.360;-122.046;2022-09-09T05:53:43;99919.81;;;23.96;70.23
66543;BME280;53395;37.360;-122.046;2022-09-09T05:56:12;99920.38;;;23.90;69.08
66543;BME280;53395;37.360;-122.046;2022-09-09T05:58:43;99918.94;;;23.86;65.43
66543;BME280;53395;37.360;-122.046;2022-09-09T06:01:14;99919.09;;;24.25;65.19
66543;BME280;53395;37.360;-122.046;2022-09-09T06:03:42;99915.81;;;24.12;61.99
66543;BME280;53395;37.360;-122.046;2022-09-09T06:06:11;99913.50;;;23.88;64.89
66543;BME280;53395;37.360;-122.046;2022-09-09T06:08:39;99913.56;;;24.07;65.89
66543;BME280;53395;37.360;-122.046;2022-09-09T06:11:08;99906.84;;;23.82;67.09
66543;BME280;53395;37.360;-122.046;2022-09-09T06:13:35;99909.06;;;24.08;65.00
66543;BME280;53395;37.360;-122.046;2022-09-09T06:16:09;99909.78;;;24.10;65.43
66543;BME280;53395;37.360;-122.046;2022-09-09T06:18:37;99904.84;;;24.05;66.40
66543;BME280;53395;37.360;-122.046;2022-09-09T06:21:06;99897.16;;;23.81;63.37
66543;BME280;53395;37.360;-122.046;2022-09-09T06:23:35;99896.47;;;23.79;64.87
66543;BME280;53395;37.360;-122.046;2022-09-09T06:26:07;99890.19;;;23.90;64.04
66543;BME280;53395;37.360;-122.046;2022-09-09T06:28:34;99882.94;;;24.01;65.43
66543;BME280;53395;37.360;-122.046;2022-09-09T06:31:03;99884.00;;;23.89;61.78
66543;BME280;53395;37.360;-122.046;2022-09-09T06:33:34;99890.00;;;23.60;64.25
66543;BME280;53395;37.360;-122.046;2022-09-09T06:36:02;99893.31;;;24.04;65.51
66543;BME280;53395;37.360;-122.046;2022-09-09T06:38:29;99880.78;;;23.64;63.52
66543;BME280;53395;37.360;-122.046;2022-09-09T06:40:57;99871.91;;;23.54;64.57
66543;BME280;53395;37.360;-122.046;2022-09-09T06:43:25;99873.09;;;23.40;64.38
66543;BME280;53395;37.360;-122.046;2022-09-09T06:48:20;99873.22;;;23.39;65.08
66543;BME280;53395;37.360;-122.046;2022-09-09T06:50:47;99873.31;;;23.37;64.40
66543;BME280;53395;37.360;-122.046;2022-09-09T06:53:18;99877.66;;;23.59;63.66
66543;BME280;53395;37.360;-122.046;2022-09-09T06:55:45;99885.72;;;23.69;63.83
66543;BME280;53395;37.360;-122.046;2022-09-09T06:58:12;99888.09;;;23.72;63.88
66543;BME280;53395;37.360;-122.046;2022-09-09T07:00:38;99892.47;;;23.42;65.21
66543;BME280;53395;37.360;-122.046;2022-09-09T07:03:04;99888.75;;;23.13;66.81
66543;BME280;53395;37.360;-122.046;2022-09-09T07:05:32;99885.78;;;22.95;68.52
66543;BME280;53395;37.360;-122.046;2022-09-09T07:07:58;99883.38;;;23.03;67.07
66543;BME280;53395;37.360;-122.046;2022-09-09T07:10:24;99887.47;;;23.07;66.63
66543;BME280;53395;37.360;-122.046;2022-09-09T07:12:51;99881.75;;;23.12;66.04
66543;BME280;53395;37.360;-122.046;2022-09-09T07:15:19;99869.72;;;22.85;66.79
66543;BME280;53395;37.360;-122.046;2022-09-09T07:17:45;99874.16;;;22.96;69.15
66543;BME280;53395;37.360;-122.046;2022-09-09T07:20:12;99880.31;;;23.29;68.93
66543;BME280;53395;37.360;-122.046;2022-09-09T07:22:40;99875.63;;;23.00;69.09
66543;BME280;53395;37.360;-122.046;2022-09-09T07:25:07;99875.16;;;22.63;71.04
66543;BME280;53395;37.360;-122.046;2022-09-09T07:27:34;99875.63;;;22.68;69.79
66543;BME280;53395;37.360;-122.046;2022-09-09T07:30:00;99873.59;;;22.60;69.60
66543;BME280;53395;37.360;-122.046;2022-09-09T07:32:27;99869.44;;;22.35;69.10
66543;BME280;53395;37.360;-122.046;2022-09-09T07:34:56;99886.97;;;22.15;73.91
66543;BME280;53395;37.360;-122.046;2022-09-09T07:37:23;99881.28;;;22.20;70.93
66543;BME280;53395;37.360;-122.046;2022-09-09T07:39:50;99881.19;;;22.10;72.77
66543;BME280;53395;37.360;-122.046;2022-09-09T07:42:17;99882.88;;;22.22;72.55
66543;BME280;53395;37.360;-122.046;2022-09-09T07:44:43;99869.94;;;22.29;72.88
66543;BME280;53395;37.360;-122.046;2022-09-09T07:47:09;99861.94;;;22.29;74.15
66543;BME280;53395;37.360;-122.046;2022-09-09T07:49:35;99873.09;;;22.23;74.48
66543;BME280;53395;37.360;-122.046;2022-09-09T07:52:02;99875.63;;;22.24;75.61
66543;BME280;53395;37.360;-122.046;2022-09-09T07:54:29;99870.19;;;22.03;77.73
66543;BME280;53395;37.360;-122.046;2022-09-09T07:56:55;99867.56;;;21.92;79.25
66543;BME280;53395;37.360;-122.046;2022-09-09T07:59:21;99865.63;;;21.83;79.93
66543;BME280;53395;37.360;-122.046;2022-09-09T08:01:50;99868.16;;;21.84;82.85
66543;BME280;53395;37.360;-122.046;2022-09-09T08:04:19;99863.94;;;21.59;83.35
66543;BME280;53395;37.360;-122.046;2022-09-09T08:06:49;99852.09;;;21.52;84.25
66543;BME280;53395;37.360;-122.046;2022-09-09T08:09:17;99852.31;;;21.49;86.27
66543;BME280;53395;37.360;-122.046;2022-09-09T08:11:44;99846.09;;;21.26;86.27
66543;BME280;53395;37.360;-122.046;2022-09-09T08:14:11;99839.63;;;21.41;87.92
66543;BME280;53395;37.360;-122.046;2022-09-09T08:16:43;99833.19;;;21.32;89.02
66543;BME280;53395;37.360;-122.046;2022-09-09T08:19:09;99840.78;;;21.37;89.04
66543;BME280;53395;37.360;-122.046;2022-09-09T08:21:37;99836.56;;;21.35;87.12
66543;BME280;53395;37.360;-122.046;2022-09-09T08:24:06;99830.91;;;21.39;86.97
66543;BME280;53395;37.360;-122.046;2022-09-09T08:26:35;99831.13;;;21.25;88.57
66543;BME280;53395;37.360;-122.046;2022-09-09T08:29:03;99830.03;;;21.27;90.83
66543;BME280;53395;37.360;-122.046;2022-09-09T08:31:36;99829.94;;;21.29;90.48
66543;BME280;53395;37.360;-122.046;2022-09-09T08:34:03;99831.59;;;21.07;92.26
66543;BME280;53395;37.360;-122.046;2022-09-09T08:36:33;99835.97;;;21.20;89.88
66543;BME280;53395;37.360;-122.046;2022-09-09T08:39:00;99829.19;;;21.16;90.29
66543;BME280;53395;37.360;-122.046;2022-09-09T08:57:53;99819.09;;;20.85;92.25
66543;BME280;53395;37.360;-122.046;2022-09-09T09:00:21;99811.00;;;20.87;91.87
66543;BME280;53395;37.360;-122.046;2022-09-09T09:03:15;99809.06;;;20.78;93.56
66543;BME280;53395;37.360;-122.046;2022-09-09T09:08:58;99807.13;;;20.80;91.48
66543;BME280;53395;37.360;-122.046;2022-09-09T09:11:25;99801.78;;;20.68;91.84
66543;BME280;53395;37.360;-122.046;2022-09-09T09:19:14;99793.16;;;20.54;93.59
66543;BME280;53395;37.360;-122.046;2022-09-09T09:21:44;99788.59;;;20.56;94.53
66543;BME280;53395;37.360;-122.046;2022-09-09T09:24:20;99777.56;;;20.49;93.43
66543;BME280;53395;37.360;-122.046;2022-09-09T09:26:46;99765.25;;;20.48;93.35
66543;BME280;53395;37.360;-122.046;2022-09-09T09:29:15;99770.41;;;20.38;93.97
66543;BME280;53395;37.360;-122.046;2022-09-09T09:31:53;99777.91;;;20.44;93.87
66543;BME280;53395;37.360;-122.046;2022-09-09T09:34:21;99780.16;;;20.38;93.56
66543;BME280;53395;37.360;-122.046;2022-09-09T09:36:56;99776.94;;;20.45;92.40
66543;BME280;53395;37.360;-122.046;2022-09-09T09:39:25;99766.63;;;20.30;93.77
66543;BME280;53395;37.360;-122.046;2022-09-09T09:41:52;99766.13;;;20.24;92.91
66543;BME280;53395;37.360;-122.046;2022-09-09T09:44:26;99763.34;;;20.26;94.67
66543;BME280;53395;37.360;-122.046;2022-09-09T09:46:53;99762.31;;;19.92;95.79
66543;BME280;53395;37.360;-122.046;2022-09-09T09:49:19;99765.69;;;20.06;94.94
66543;BME280;53395;37.360;-122.046;2022-09-09T09:51:45;99764.13;;;20.15;93.87
66543;BME280;53395;37.360;-122.046;2022-09-09T09:54:33;99770.25;;;20.04;95.18
66543;BME280;53395;37.360;-122.046;2022-09-09T09:57:15;99772.91;;;20.04;93.58
66543;BME280;53395;37.360;-122.046;2022-09-09T09:59:43;99761.78;;;19.99;94.59
66543;BME280;53395;37.360;-122.046;2022-09-09T10:02:19;99763.53;;;19.88;94.10
66543;BME280;53395;37.360;-122.046;2022-09-09T10:04:46;99753.66;;;19.90;93.03
66543;BME280;53395;37.360;-122.046;2022-09-09T10:07:19;99751.97;;;19.89;92.98
66543;BME280;53395;37.360;-122.046;2022-09-09T10:09:51;99754.44;;;19.79;93.36
66543;BME280;53395;37.360;-122.046;2022-09-09T10:20:43;99731.44;;;19.67;93.00
66543;BME280;53395;37.360;-122.046;2022-09-09T10:36:48;99734.66;;;19.46;91.74
66543;BME280;53395;37.360;-122.046;2022-09-09T10:42:06;99737.34;;;19.33;93.38
66543;BME280;53395;37.360;-122.046;2022-09-09T10:50:30;99733.03;;;19.19;95.17
66543;BME280;53395;37.360;-122.046;2022-09-09T10:53:35;99727.00;;;19.17;94.15
66543;BME280;53395;37.360;-122.046;2022-09-09T10:56:15;99720.53;;;19.21;94.44
66543;BME280;53395;37.360;-122.046;2022-09-09T11:04:55;99696.28;;;19.02;94.74
66543;BME280;53395;37.360;-122.046;2022-09-09T11:07:41;99701.25;;;19.07;94.99
66543;BME280;53395;37.360;-122.046;2022-09-09T11:12:46;99703.91;;;19.07;94.66
66543;BME280;53395;37.360;-122.046;2022-09-09T11:15:29;99702.53;;;19.01;96.85
66543;BME280;53395;37.360;-122.046;2022-09-09T11:17:59;99714.75;;;18.91;97.56
66543;BME280;53395;37.360;-122.046;2022-09-09T11:20:27;99710.91;;;18.82;97.59
66543;BME280;53395;37.360;-122.046;2022-09-09T11:23:09;99710.38;;;18.90;97.95
66543;BME280;53395;37.360;-122.046;2022-09-09T11:25:44;99698.28;;;18.73;99.09
66543;BME280;53395;37.360;-122.046;2022-09-09T11:31:33;99699.75;;;18.64;97.72
66543;BME280;53395;37.360;-122.046;2022-09-09T11:34:53;99700.28;;;18.56;98.04
66543;BME280;53395;37.360;-122.046;2022-09-09T11:40:18;99697.00;;;18.66;98.66
66543;BME280;53395;37.360;-122.046;2022-09-09T11:42:46;99687.06;;;18.56;98.10
66543;BME280;53395;37.360;-122.046;2022-09-09T11:45:24;99684.19;;;18.59;98.40
66543;BME280;53395;37.360;-122.046;2022-09-09T11:47:54;99688.00;;;18.68;98.30
66543;BME280;53395;37.360;-122.046;2022-09-09T11:52:48;99688.34;;;18.51;98.85
66543;BME280;53395;37.360;-122.046;2022-09-09T11:55:32;99689.38;;;18.48;99.87
66543;BME280;53395;37.360;-122.046;2022-09-09T11:58:15;99687.47;;;18.50;98.91
66543;BME280;53395;37.360;-122.046;2022-09-09T12:00:48;99680.59;;;18.35;99.72
66543;BME280;53395;37.360;-122.046;2022-09-09T12:06:10;99677.50;;;18.15;100.00
66543;BME280;53395;37.360;-122.046;2022-09-09T12:08:42;99675.69;;;18.29;100.00
66543;BME280;53395;37.360;-122.046;2022-09-09T12:11:09;99674.84;;;18.15;100.00
66543;BME280;53395;37.360;-122.046;2022-09-09T12:13:36;99682.78;;;18.15;100.00
66543;BME280;53395;37.360;-122.046;2022-09-09T12:16:03;99691.03;;;18.24;100.00
66543;BME280;53395;37.360;-122.046;2022-09-09T12:18:38;99677.59;;;18.14;100.00
66543;BME280;53395;37.360;-122.046;2022-09-09T12:21:21;99682.34;;;18.09;100.00
66543;BME280;53395;37.360;-122.046;2022-09-09T12:23:55;99670.28;;;18.17;100.00
66543;BME280;53395;37.360;-122.046;2022-09-09T12:39:59;99670.22;;;17.92;100.00
66543;BME280;53395;37.360;-122.046;2022-09-09T12:42:27;99676.81;;;17.99;100.00
66543;BME280;53395;37.360;-122.046;2022-09-09T12:44:59;99678.81;;;17.95;100.00
66543;BME280;53395;37.360;-122.046;2022-09-09T12:47:53;99670.16;;;17.79;100.00
66543;BME280;53395;37.360;-122.046;2022-09-09T12:50:22;99668.09;;;17.70;100.00
66543;BME280;53395;37.360;-122.046;2022-09-09T12:52:59;99661.25;;;17.80;100.00
66543;BME280;53395;37.360;-122.046;2022-09-09T12:55:31;99658.03;;;17.62;100.00
66543;BME280;53395;37.360;-122.046;2022-09-09T12:58:00;99657.50;;;17.57;100.00
66543;BME280;53395;37.360;-122.046;2022-09-09T13:00:30;99654.50;;;17.49;100.00
66543;BME280;53395;37.360;-122.046;2022-09-09T13:03:02;99652.56;;;17.38;100.00
66543;BME280;53395;37.360;-122.046;2022-09-09T13:05:37;99653.34;;;17.53;100.00
66543;BME280;53395;37.360;-122.046;2022-09-09T13:08:12;99653.09;;;17.43;100.00
66543;BME280;53395;37.360;-122.046;2022-09-09T13:10:50;99641.72;;;17.28;100.00
66543;BME280;53395;37.360;-122.046;2022-09-09T13:13:36;99642.91;;;17.37;100.00
66543;BME280;53395;37.360;-122.046;2022-09-09T13:16:05;99655.84;;;17.42;100.00
66543;BME280;53395;37.360;-122.046;2022-09-09T13:18:40;99651.84;;;17.49;100.00
66543;BME280;53395;37.360;-122.046;2022-09-09T13:21:07;99658.38;;;17.43;100.00
66543;BME280;53395;37.360;-122.046;2022-09-09T13:23:36;99650.97;;;17.36;100.00
66543;BME280;53395;37.360;-122.046;2022-09-09T13:26:23;99656.88;;;17.39;100.00
66543;BME280;53395;37.360;-122.046;2022-09-09T13:28:50;99658.97;;;17.34;100.00
66543;BME280;53395;37.360;-122.046;2022-09-09T13:31:24;99655.78;;;17.29;100.00
66543;BME280;53395;37.360;-122.046;2022-09-09T13:33:53;99653.59;;;17.21;100.00
66543;BME280;53395;37.360;-122.046;2022-09-09T13:36:31;99652.03;;;17.04;100.00
66543;BME280;53395;37.360;-122.046;2022-09-09T13:39:02;99648.09;;;16.97;100.00
66543;BME280;53395;37.360;-122.046;2022-09-09T13:41:34;99638.38;;;17.12;100.00
66543;BME280;53395;37.360;-122.046;2022-09-09T13:44:01;99643.72;;;17.25;100.00
66543;BME280;53395;37.360;-122.046;2022-09-09T13:46:37;99636.19;;;17.04;100.00
66543;BME280;53395;37.360;-122.046;2022-09-09T13:51:41;99647.50;;;17.06;100.00
66543;BME280;53395;37.360;-122.046;2022-09-09T13:54:12;99651.66;;;17.10;100.00
66543;BME280;53395;37.360;-122.046;2022-09-09T13:56:40;99657.22;;;17.06;100.00
66543;BME280;53395;37.360;-122.046;2022-09-09T13:59:14;99657.44;;;17.03;100.00
66543;BME280;53395;37.360;-122.046;2022-09-09T14:01:41;99651.00;;;17.07;100.00
66543;BME280;53395;37.360;-122.046;2022-09-09T14:04:08;99661.22;;;17.26;100.00
66543;BME280;53395;37.360;-122.046;2022-09-09T14:06:35;99657.94;;;17.37;100.00
66543;BME280;53395;37.360;-122.046;2022-09-09T14:09:06;99664.09;;;17.23;100.00
66543;BME280;53395;37.360;-122.046;2022-09-09T14:11:33;99663.88;;;17.26;100.00
66543;BME280;53395;37.360;-122.046;2022-09-09T14:13:59;99666.06;;;17.33;100.00
66543;BME280;53395;37.360;-122.046;2022-09-09T14:16:26;99667.25;;;17.42;100.00
66543;BME280;53395;37.360;-122.046;2022-09-09T14:18:53;99676.50;;;17.35;100.00
66543;BME280;53395;37.360;-122.046;2022-09-09T14:21:22;99670.47;;;17.47;100.00
66543;BME280;53395;37.360;-122.046;2022-09-09T14:23:49;99672.63;;;17.82;100.00
66543;BME280;53395;37.360;-122.046;2022-09-09T14:26:15;99678.06;;;18.59;100.00
66543;BME280;53395;37.360;-122.046;2022-09-09T14:28:41;99675.31;;;18.61;100.00
66543;BME280;53395;37.360;-122.046;2022-09-09T14:31:08;99682.09;;;18.90;100.00
66543;BME280;53395;37.360;-122.046;2022-09-09T14:33:36;99684.28;;;19.09;99.48
66543;BME280;53395;37.360;-122.046;2022-09-09T14:36:03;99685.44;;;19.18;99.06
66543;BME280;53395;37.360;-122.046;2022-09-09T14:38:34;99689.41;;;18.87;99.79
66543;BME280;53395;37.360;-122.046;2022-09-09T14:41:06;99687.94;;;18.83;99.19
66543;BME280;53395;37.360;-122.046;2022-09-09T14:43:32;99688.25;;;18.91;98.09
66543;BME280;53395;37.360;-122.046;2022-09-09T14:46:10;99694.50;;;19.03;96.89
66543;BME280;53395;37.360;-122.046;2022-09-09T14:48:36;99691.19;;;19.12;96.75
66543;BME280;53395;37.360;-122.046;2022-09-09T14:51:15;99699.56;;;19.55;94.80
66543;BME280;53395;37.360;-122.046;2022-09-09T14:53:42;99694.03;;;19.21;95.66
66543;BME280;53395;37.360;-122.046;2022-09-09T14:56:14;99704.31;;;19.26;96.79
66543;BME280;53395;37.360;-122.046;2022-09-09T14:58:40;99698.41;;;19.47;95.43
66543;BME280;53395;37.360;-122.046;2022-09-09T15:01:10;99709.34;;;19.42;96.50
66543;BME280;53395;37.360;-122.046;2022-09-09T15:03:38;99714.91;;;20.00;93.30
66543;BME280;53395;37.360;-122.046;2022-09-09T15:06:06;99714.28;;;19.59;95.79
66543;BME280;53395;37.360;-122.046;2022-09-09T15:08:32;99701.56;;;19.52;95.77
66543;BME280;53395;37.360;-122.046;2022-09-09T15:10:58;99711.31;;;19.64;95.96
66543;BME280;53395;37.360;-122.046;2022-09-09T15:13:25;99704.91;;;19.79;95.63
66543;BME280;53395;37.360;-122.046;2022-09-09T15:15:51;99715.50;;;19.79;94.25